sensor_id;sensor_type;location;lat;lon;timestamp;pressure;altitude;pressure_sealevel;temperature;humidity
47913;BME280;33676;51.006;17.180;2022-11-13T00:01:22;101818.70;;;8.93;100.00
47913;BME280;33676;51.006;17.180;2022-11-13T00:03:51;101816.34;;;8.96;100.00
47913;BME280;33676;51.006;17.180;2022-11-13T00:06:19;101815.48;;;8.95;100.00
47913;BME280;33676;51.006;17.180;2022-11-13T00:08:52;101822.21;;;8.97;100.00
47913;BME280;33676;51.006;17.180;2022-11-13T00:11:22;101818.00;;;8.98;100.00
47913;BME280;33676;51.006;17.180;2022-11-13T00:13:50;101816.39;;;8.98;100.00
47913;BME280;33676;51.006;17.180;2022-11-13T00:16:20;101816.70;;;8.99;100.00
47913;BME280;33676;51.006;17.180;2022-11-13T00:18:49;101818.41;;;9.00;100.00
47913;BME280;33676;51.006;17.180;2022-11-13T00:21:21;101812.98;;;9.01;100.00
47913;BME280;33676;51.006;17.180;2022-11-13T00:23:50;101817.42;;;9.02;100.00
47913;BME280;33676;51.006;17.180;2022-11-13T00:26:25;101820.36;;;9.03;100.00
47913;BME280;33676;51.006;17.180;2022-11-13T00:28:58;101815.35;;;9.02;100.00
47913;BME280;33676;51.006;17.180;2022-11-13T00:31:28;101818.84;;;9.02;100.00
47913;BME280;33676;51.006;17.180;2022-11-13T00:33:57;101821.90;;;9.04;100.00
47913;BME280;33676;51.006;17.180;2022-11-13T00:36:46;101821.13;;;9.05;100.00
47913;BME280;33676;51.006;17.180;2022-11-13T00:39:15;101818.72;;;9.08;100.00
47913;BME280;33676;51.006;17.180;2022-11-13T00:41:43;101817.42;;;9.10;100.00
47913;BME280;33676;51.006;17.180;2022-11-13T00:44:11;101819.42;;;9.12;100.00
47913;BME280;33676;51.006;17.180;2022-11-13T00:46:40;101819.34;;;9.13;100.00
47913;BME280;33676;51.006;17.180;2022-11-13T00:49:08;101817.71;;;9.14;100.00
47913;BME280;33676;51.006;17.180;2022-11-13T00:51:37;101816.10;;;9.16;100.00
47913;BME280;33676;51.006;17.180;2022-11-13T00:54:05;101806.41;;;9.18;100.00
47913;BME280;33676;51.006;17.180;2022-11-13T00:56:33;101799.95;;;9.18;100.00
47913;BME280;33676;51.006;17.180;2022-11-13T00:59:02;101804.30;;;9.18;100.00
47913;BME280;33676;51.006;17.180;2022-11-13T01:01:30;101801.27;;;9.19;100.00
47913;BME280;33676;51.006;17.180;2022-11-13T01:03:59;101795.86;;;9.19;100.00
47913;BME280;33676;51.006;17.180;2022-11-13T01:06:27;101795.38;;;9.18;100.00
47913;BME280;33676;51.006;17.180;2022-11-13T01:08:57;101794.02;;;9.18;100.00
47913;BME280;33676;51.006;17.180;2022-11-13T01:11:29;101793.15;;;9.18;100.00
47913;BME280;33676;51.006;17.180;2022-11-13T01:13:58;101784.48;;;9.16;100.00
47913;BME280;33676;51.006;17.180;2022-11-13T01:16:27;101786.08;;;9.16;100.00
47913;BME280;33676;51.006;17.180;2022-11-13T01:18:55;101781.20;;;9.16;100.00
47913;BME280;33676;51.006;17.180;2022-11-13T01:21:26;101784.79;;;9.17;100.00
47913;BME280;33676;51.006;17.180;2022-11-13T01:23:55;101783.40;;;9.17;100.00
47913;BME280;33676;51.006;17.180;2022-11-13T01:26:29;101784.30;;;9.17;100.00
47913;BME280;33676;51.006;17.180;2022-11-13T01:28:58;101777.02;;;9.16;100.00
47913;BME280;33676;51.006;17.180;2022-11-13T01:31:29;101774.20;;;9.16;100.00
47913;BME280;33676;51.006;17.180;2022-11-13T01:33:58;101771.14;;;9.18;100.00
47913;BME280;33676;51.006;17.180;2022-11-13T01:36:28;101772.48;;;9.19;100.00
47913;BME280;33676;51.006;17.180;2022-11-13T01:38:56;101765.39;;;9.22;100.00
47913;BME280;33676;51.006;17.180;2022-11-13T01:41:31;101764.66;;;9.22;100.00
47913;BME280;33676;51.006;17.180;2022-11-13T01:44:00;101767.36;;;9.21;99.99
47913;BME280;33676;51.006;17.180;2022-11-13T01:46:35;101757.98;;;9.20;100.00
47913;BME280;33676;51.006;17.180;2022-11-13T01:49:25;101753.96;;;9.20;99.99
47913;BME280;33676;51.006;17.180;2022-11-13T01:52:07;101754.16;;;9.19;99.94
47913;BME280;33676;51.006;17.180;2022-11-13T01:54:52;101750.48;;;9.19;99.97
47913;BME280;33676;51.006;17.180;2022-11-13T01:57:21;101750.94;;;9.17;99.90
47913;BME280;33676;51.006;17.180;2022-11-13T01:59:55;101747.66;;;9.17;99.87
47913;BME280;33676;51.006;17.180;2022-11-13T02:02:25;101745.38;;;9.14;99.83
47913;BME280;33676;51.006;17.180;2022-11-13T02:04:54;101740.17;;;9.09;99.60
47913;BME280;33676;51.006;17.180;2022-11-13T02:07:22;101740.14;;;9.06;99.65
47913;BME280;33676;51.006;17.180;2022-11-13T02:09:55;101734.26;;;9.05;99.88
47913;BME280;33676;51.006;17.180;2022-11-13T02:12:33;101733.90;;;9.05;99.92
47913;BME280;33676;51.006;17.180;2022-11-13T02:15:05;101731.80;;;9.06;99.81
47913;BME280;33676;51.006;17.180;2022-11-13T02:17:47;101731.79;;;9.06;99.97
47913;BME280;33676;51.006;17.180;2022-11-13T02:21:00;101734.69;;;9.07;99.98
47913;BME280;33676;51.006;17.180;2022-11-13T02:26:12;101733.20;;;9.09;99.99
47913;BME280;33676;51.006;17.180;2022-11-13T02:28:40;101732.36;;;9.09;99.97
47913;BME280;33676;51.006;17.180;2022-11-13T02:31:12;101732.60;;;9.07;99.93
47913;BME280;33676;51.006;17.180;2022-11-13T02:33:40;101730.36;;;9.07;99.96
47913;BME280;33676;51.006;17.180;2022-11-13T02:36:10;101731.55;;;9.07;99.98
47913;BME280;33676;51.006;17.180;2022-11-13T02:38:40;101722.09;;;9.08;99.98
47913;BME280;33676;51.006;17.180;2022-11-13T02:41:09;101715.66;;;9.08;99.98
47913;BME280;33676;51.006;17.180;2022-11-13T02:43:37;101714.61;;;9.08;99.97
47913;BME280;33676;51.006;17.180;2022-11-13T02:46:05;101711.47;;;9.08;99.99
47913;BME280;33676;51.006;17.180;2022-11-13T02:48:34;101705.38;;;9.08;99.99
47913;BME280;33676;51.006;17.180;2022-11-13T02:51:03;101702.36;;;9.05;99.91
47913;BME280;33676;51.006;17.180;2022-11-13T02:53:31;101701.67;;;9.05;99.96
47913;BME280;33676;51.006;17.180;2022-11-13T02:56:00;101700.77;;;9.05;99.98
47913;BME280;33676;51.006;17.180;2022-11-13T02:58:28;101696.56;;;9.06;100.00
47913;BME280;33676;51.006;17.180;2022-11-13T03:01:01;101694.95;;;9.06;100.00
47913;BME280;33676;51.006;17.180;2022-11-13T03:03:30;101689.66;;;9.08;100.00
47913;BME280;33676;51.006;17.180;2022-11-13T03:06:18;101685.46;;;9.08;100.00
47913;BME280;33676;51.006;17.180;2022-11-13T03:08:47;101680.89;;;9.09;100.00
47913;BME280;33676;51.006;17.180;2022-11-13T03:11:15;101676.85;;;9.09;100.00
47913;BME280;33676;51.006;17.180;2022-11-13T03:13:43;101680.67;;;9.10;100.00
47913;BME280;33676;51.006;17.180;2022-11-13T03:16:15;101678.20;;;9.10;100.00
47913;BME280;33676;51.006;17.180;2022-11-13T03:18:43;101671.67;;;9.12;100.00
47913;BME280;33676;51.006;17.180;2022-11-13T03:21:14;101670.08;;;9.12;100.00
47913;BME280;33676;51.006;17.180;2022-11-13T03:23:43;101667.98;;;9.12;100.00
47913;BME280;33676;51.006;17.180;2022-11-13T03:26:15;101668.01;;;9.12;100.00
47913;BME280;33676;51.006;17.180;2022-11-13T03:28:44;101664.77;;;9.10;100.00
47913;BME280;33676;51.006;17.180;2022-11-13T03:31:13;101666.88;;;9.10;100.00
47913;BME280;33676;51.006;17.180;2022-11-13T03:33:42;101665.99;;;9.10;100.00
47913;BME280;33676;51.006;17.180;2022-11-13T03:36:10;101663.16;;;9.11;100.00
47913;BME280;33676;51.006;17.180;2022-11-13T03:38:39;101664.88;;;9.11;100.00
47913;BME280;33676;51.006;17.180;2022-11-13T03:41:07;101669.23;;;9.11;100.00
47913;BME280;33676;51.006;17.180;2022-11-13T03:43:35;101669.59;;;9.12;100.00
47913;BME280;33676;51.006;17.180;2022-11-13T03:46:04;101664.53;;;9.11;100.00
47913;BME280;33676;51.006;17.180;2022-11-13T03:48:32;101666.55;;;9.09;100.00
47913;BME280;33676;51.006;17.180;2022-11-13T03:51:01;101668.55;;;9.08;100.00
47913;BME280;33676;51.006;17.180;2022-11-13T03:53:30;101661.95;;;9.07;100.00
47913;BME280;33676;51.006;17.180;2022-11-13T03:55:58;101657.14;;;9.06;100.00
47913;BME280;33676;51.006;17.180;2022-11-13T03:58:27;101654.83;;;9.03;99.99
47913;BME280;33676;51.006;17.180;2022-11-13T04:00:56;101654.94;;;9.01;100.00
47913;BME280;33676;51.006;17.180;2022-11-13T04:03:24;101660.91;;;9.00;100.00
47913;BME280;33676;51.006;17.180;2022-11-13T04:05:52;101665.20;;;8.98;100.00
47913;BME280;33676;51.006;17.180;2022-11-13T04:08:21;101661.17;;;8.95;100.00
47913;BME280;33676;51.006;17.180;2022-11-13T04:10:49;101656.75;;;8.92;100.00
47913;BME280;33676;51.006;17.180;2022-11-13T04:13:17;101661.48;;;8.92;100.00
47913;BME280;33676;51.006;17.180;2022-11-13T04:15:46;101660.96;;;8.92;100.00
47913;BME280;33676;51.006;17.180;2022-11-13T04:18:14;101660.92;;;8.89;100.00
47913;BME280;33676;51.006;17.180;2022-11-13T04:20:43;101659.27;;;8.87;100.00
47913;BME280;33676;51.006;17.180;2022-11-13T04:23:11;101667.88;;;8.86;100.00
47913;BME280;33676;51.006;17.180;2022-11-13T04:25:41;101666.95;;;8.84;100.00
47913;BME280;33676;51.006;17.180;2022-11-13T04:28:09;101671.34;;;8.83;100.00
47913;BME280;33676;51.006;17.180;2022-11-13T04:30:38;101672.44;;;8.82;100.00
47913;BME280;33676;51.006;17.180;2022-11-13T04:33:06;101670.15;;;8.83;100.00
47913;BME280;33676;51.006;17.180;2022-11-13T04:35:35;101669.30;;;8.83;100.00
47913;BME280;33676;51.006;17.180;2022-11-13T04:38:03;101673.31;;;8.82;100.00
47913;BME280;33676;51.006;17.180;2022-11-13T04:40:32;101670.21;;;8.82;100.00
47913;BME280;33676;51.006;17.180;2022-11-13T04:43:00;101674.79;;;8.81;100.00
47913;BME280;33676;51.006;17.180;2022-11-13T04:45:29;101672.78;;;8.79;100.00
47913;BME280;33676;51.006;17.180;2022-11-13T04:47:57;101675.88;;;8.80;100.00
47913;BME280;33676;51.006;17.180;2022-11-13T04:50:26;101673.08;;;8.80;100.00
47913;BME280;33676;51.006;17.180;2022-11-13T04:52:54;101671.16;;;8.80;100.00
47913;BME280;33676;51.006;17.180;2022-11-13T04:55:23;101668.73;;;8.80;100.00
47913;BME280;33676;51.006;17.180;2022-11-13T04:57:54;101670.96;;;8.81;100.00
47913;BME280;33676;51.006;17.180;2022-11-13T05:00:23;101674.48;;;8.80;100.00
47913;BME280;33676;51.006;17.180;2022-11-13T05:02:51;101677.83;;;8.79;100.00
47913;BME280;33676;51.006;17.180;2022-11-13T05:05:20;101677.00;;;8.78;100.00
47913;BME280;33676;51.006;17.180;2022-11-13T05:07:48;101680.04;;;8.77;100.00
47913;BME280;33676;51.006;17.180;2022-11-13T05:10:17;101676.21;;;8.77;100.00
47913;BME280;33676;51.006;17.180;2022-11-13T05:12:45;101675.89;;;8.76;100.00
47913;BME280;33676;51.006;17.180;2022-11-13T05:15:13;101677.03;;;8.74;100.00
47913;BME280;33676;51.006;17.180;2022-11-13T05:17:42;101677.14;;;8.72;100.00
47913;BME280;33676;51.006;17.180;2022-11-13T05:20:10;101677.55;;;8.70;100.00
47913;BME280;33676;51.006;17.180;2022-11-13T05:22:39;101674.86;;;8.68;100.00
47913;BME280;33676;51.006;17.180;2022-11-13T05:25:07;101674.38;;;8.68;100.00
47913;BME280;33676;51.006;17.180;2022-11-13T05:27:36;101677.23;;;8.66;100.00
47913;BME280;33676;51.006;17.180;2022-11-13T05:30:05;101676.42;;;8.65;100.00
47913;BME280;33676;51.006;17.180;2022-11-13T05:32:33;101677.86;;;8.64;100.00
47913;BME280;33676;51.006;17.180;2022-11-13T05:35:02;101682.77;;;8.63;100.00
47913;BME280;33676;51.006;17.180;2022-11-13T05:37:30;101680.89;;;8.62;100.00
47913;BME280;33676;51.006;17.180;2022-11-13T05:39:59;101675.34;;;8.62;100.00
47913;BME280;33676;51.006;17.180;2022-11-13T05:42:27;101672.31;;;8.59;100.00
47913;BME280;33676;51.006;17.180;2022-11-13T05:44:55;101674.69;;;8.57;100.00
47913;BME280;33676;51.006;17.180;2022-11-13T05:47:24;101678.83;;;8.54;100.00
47913;BME280;33676;51.006;17.180;2022-11-13T05:49:52;101676.16;;;8.52;100.00
47913;BME280;33676;51.006;17.180;2022-11-13T05:52:21;101672.05;;;8.50;100.00
47913;BME280;33676;51.006;17.180;2022-11-13T05:54:49;101672.73;;;8.47;100.00
47913;BME280;33676;51.006;17.180;2022-11-13T05:57:17;101669.21;;;8.44;100.00
47913;BME280;33676;51.006;17.180;2022-11-13T05:59:46;101670.70;;;8.42;100.00
47913;BME280;33676;51.006;17.180;2022-11-13T06:02:14;101670.23;;;8.41;100.00
47913;BME280;33676;51.006;17.180;2022-11-13T06:04:42;101674.32;;;8.39;100.00
47913;BME280;33676;51.006;17.180;2022-11-13T06:07:12;101673.02;;;8.37;100.00
47913;BME280;33676;51.006;17.180;2022-11-13T06:09:40;101669.83;;;8.34;100.00
47913;BME280;33676;51.006;17.180;2022-11-13T06:12:09;101665.73;;;8.33;100.00
47913;BME280;33676;51.006;17.180;2022-11-13T06:14:37;101665.41;;;8.32;100.00
47913;BME280;33676;51.006;17.180;2022-11-13T06:17:05;101663.36;;;8.31;100.00
47913;BME280;33676;51.006;17.180;2022-11-13T06:19:34;101663.73;;;8.30;100.00
47913;BME280;33676;51.006;17.180;2022-11-13T06:22:02;101658.90;;;8.29;100.00
47913;BME280;33676;51.006;17.180;2022-11-13T06:24:30;101662.88;;;8.30;100.00
47913;BME280;33676;51.006;17.180;2022-11-13T06:26:59;101662.91;;;8.29;100.00
47913;BME280;33676;51.006;17.180;2022-11-13T06:29:27;101661.85;;;8.29;100.00
47913;BME280;33676;51.006;17.180;2022-11-13T06:31:55;101664.27;;;8.30;100.00
47913;BME280;33676;51.006;17.180;2022-11-13T06:34:24;101659.41;;;8.30;100.00
47913;BME280;33676;51.006;17.180;2022-11-13T06:36:52;101656.30;;;8.29;100.00
47913;BME280;33676;51.006;17.180;2022-11-13T06:39:20;101655.07;;;8.29;100.00
47913;BME280;33676;51.006;17.180;2022-11-13T06:41:49;101657.13;;;8.30;100.00
47913;BME280;33676;51.006;17.180;2022-11-13T06:44:17;101658.16;;;8.30;100.00
47913;BME280;33676;51.006;17.180;2022-11-13T06:46:45;101653.63;;;8.30;100.00
47913;BME280;33676;51.006;17.180;2022-11-13T06:49:14;101654.27;;;8.32;100.00
47913;BME280;33676;51.006;17.180;2022-11-13T06:51:42;101656.13;;;8.32;100.00
47913;BME280;33676;51.006;17.180;2022-11-13T06:54:10;101655.91;;;8.34;100.00
47913;BME280;33676;51.006;17.180;2022-11-13T06:56:39;101655.35;;;8.35;100.00
47913;BME280;33676;51.006;17.180;2022-11-13T06:59:12;101654.98;;;8.35;100.00
47913;BME280;33676;51.006;17.180;2022-11-13T07:01:40;101652.68;;;8.36;100.00
47913;BME280;33676;51.006;17.180;2022-11-13T07:04:11;101655.03;;;8.38;100.00
47913;BME280;33676;51.006;17.180;2022-11-13T07:06:40;101651.13;;;8.39;100.00
47913;BME280;33676;51.006;17.180;2022-11-13T07:09:09;101643.13;;;8.42;100.00
47913;BME280;33676;51.006;17.180;2022-11-13T07:11:37;101642.28;;;8.46;100.00
47913;BME280;33676;51.006;17.180;2022-11-13T07:14:09;101638.98;;;8.49;100.00
47913;BME280;33676;51.006;17.180;2022-11-13T07:16:38;101633.77;;;8.52;100.00
47913;BME280;33676;51.006;17.180;2022-11-13T07:19:26;101628.20;;;8.56;100.00
47913;BME280;33676;51.006;17.180;2022-11-13T07:21:55;101627.05;;;8.58;100.00
47913;BME280;33676;51.006;17.180;2022-11-13T07:24:23;101625.52;;;8.61;100.00
47913;BME280;33676;51.006;17.180;2022-11-13T07:26:52;101625.61;;;8.63;100.00
47913;BME280;33676;51.006;17.180;2022-11-13T07:29:20;101626.41;;;8.64;100.00
47913;BME280;33676;51.006;17.180;2022-11-13T07:31:48;101623.99;;;8.68;100.00
47913;BME280;33676;51.006;17.180;2022-11-13T07:34:17;101621.02;;;8.72;100.00
47913;BME280;33676;51.006;17.180;2022-11-13T07:36:45;101619.26;;;8.75;100.00
47913;BME280;33676;51.006;17.180;2022-11-13T07:39:13;101622.91;;;8.79;100.00
47913;BME280;33676;51.006;17.180;2022-11-13T07:41:42;101624.17;;;8.82;100.00
47913;BME280;33676;51.006;17.180;2022-11-13T07:44:10;101630.05;;;8.85;100.00
47913;BME280;33676;51.006;17.180;2022-11-13T07:46:58;101627.20;;;8.90;100.00
47913;BME280;33676;51.006;17.180;2022-11-13T07:49:27;101623.85;;;8.98;100.00
47913;BME280;33676;51.006;17.180;2022-11-13T07:51:55;101620.52;;;9.06;100.00
47913;BME280;33676;51.006;17.180;2022-11-13T07:54:24;101621.92;;;9.12;100.00
47913;BME280;33676;51.006;17.180;2022-11-13T07:56:52;101624.77;;;9.18;100.00
47913;BME280;33676;51.006;17.180;2022-11-13T07:59:20;101621.88;;;9.23;100.00
47913;BME280;33676;51.006;17.180;2022-11-13T08:01:49;101620.16;;;9.30;100.00
47913;BME280;33676;51.006;17.180;2022-11-13T08:04:17;101621.36;;;9.37;100.00
47913;BME280;33676;51.006;17.180;2022-11-13T08:06:46;101623.63;;;9.44;100.00
47913;BME280;33676;51.006;17.180;2022-11-13T08:09:14;101626.38;;;9.51;100.00
47913;BME280;33676;51.006;17.180;2022-11-13T08:11:43;101623.34;;;9.59;100.00
47913;BME280;33676;51.006;17.180;2022-11-13T08:14:11;101621.77;;;9.66;100.00
47913;BME280;33676;51.006;17.180;2022-11-13T08:16:39;101628.44;;;9.72;100.00
47913;BME280;33676;51.006;17.180;2022-11-13T08:19:08;101624.65;;;9.80;100.00
47913;BME280;33676;51.006;17.180;2022-11-13T08:21:36;101630.60;;;9.90;100.00
47913;BME280;33676;51.006;17.180;2022-11-13T08:24:05;101625.18;;;9.99;100.00
47913;BME280;33676;51.006;17.180;2022-11-13T08:26:37;101629.71;;;10.16;100.00
47913;BME280;33676;51.006;17.180;2022-11-13T08:29:05;101630.26;;;10.32;100.00
47913;BME280;33676;51.006;17.180;2022-11-13T08:31:35;101626.34;;;10.39;100.00
47913;BME280;33676;51.006;17.180;2022-11-13T08:34:03;101626.55;;;10.44;100.00
47913;BME280;33676;51.006;17.180;2022-11-13T08:36:32;101630.68;;;10.46;100.00
47913;BME280;33676;51.006;17.180;2022-11-13T08:39:01;101622.36;;;10.48;100.00
47913;BME280;33676;51.006;17.180;2022-11-13T08:41:29;101625.67;;;10.51;100.00
47913;BME280;33676;51.006;17.180;2022-11-13T08:43:57;101628.05;;;10.55;100.00
47913;BME280;33676;51.006;17.180;2022-11-13T08:46:26;101630.91;;;10.57;99.98
47913;BME280;33676;51.006;17.180;2022-11-13T08:48:54;101633.37;;;10.57;99.95
47913;BME280;33676;51.006;17.180;2022-11-13T08:51:23;101630.10;;;10.56;99.80
47913;BME280;33676;51.006;17.180;2022-11-13T08:53:51;101629.82;;;10.52;99.29
47913;BME280;33676;51.006;17.180;2022-11-13T08:56:20;101633.67;;;10.48;99.02
47913;BME280;33676;51.006;17.180;2022-11-13T08:58:48;101637.59;;;10.44;98.58
47913;BME280;33676;51.006;17.180;2022-11-13T09:01:16;101637.53;;;10.42;98.42
47913;BME280;33676;51.006;17.180;2022-11-13T09:03:50;101647.56;;;10.41;98.41
47913;BME280;33676;51.006;17.180;2022-11-13T09:06:18;101647.95;;;10.41;98.10
47913;BME280;33676;51.006;17.180;2022-11-13T09:08:46;101643.73;;;10.38;97.63
47913;BME280;33676;51.006;17.180;2022-11-13T09:11:15;101644.06;;;10.32;97.35
47913;BME280;33676;51.006;17.180;2022-11-13T09:13:43;101645.28;;;10.29;97.33
47913;BME280;33676;51.006;17.180;2022-11-13T09:16:20;101647.50;;;10.23;96.98
47913;BME280;33676;51.006;17.180;2022-11-13T09:18:50;101647.88;;;10.20;97.14
47913;BME280;33676;51.006;17.180;2022-11-13T09:21:18;101650.39;;;10.18;97.18
47913;BME280;33676;51.006;17.180;2022-11-13T09:23:47;101654.05;;;10.15;96.84
47913;BME280;33676;51.006;17.180;2022-11-13T09:26:16;101650.04;;;10.09;96.18
47913;BME280;33676;51.006;17.180;2022-11-13T09:28:45;101644.73;;;10.00;95.89
47913;BME280;33676;51.006;17.180;2022-11-13T09:31:13;101646.66;;;9.87;95.47
47913;BME280;33676;51.006;17.180;2022-11-13T09:33:41;101648.25;;;9.80;95.84
47913;BME280;33676;51.006;17.180;2022-11-13T09:36:13;101650.68;;;9.77;95.97
47913;BME280;33676;51.006;17.180;2022-11-13T09:38:42;101654.35;;;9.71;95.77
47913;BME280;33676;51.006;17.180;2022-11-13T09:41:18;101652.66;;;9.62;95.88
47913;BME280;33676;51.006;17.180;2022-11-13T09:43:54;101652.38;;;9.58;96.02
47913;BME280;33676;51.006;17.180;2022-11-13T09:46:43;101649.41;;;9.54;96.39
47913;BME280;33676;51.006;17.180;2022-11-13T09:49:26;101651.10;;;9.46;95.87
47913;BME280;33676;51.006;17.180;2022-11-13T09:52:01;101654.36;;;9.37;96.24
47913;BME280;33676;51.006;17.180;2022-11-13T09:54:33;101657.02;;;9.33;96.47
47913;BME280;33676;51.006;17.180;2022-11-13T09:59:59;101651.88;;;9.24;96.44
47913;BME280;33676;51.006;17.180;2022-11-13T10:05:56;101648.70;;;9.18;96.90
47913;BME280;33676;51.006;17.180;2022-11-13T10:08:57;101647.28;;;9.18;97.17
47913;BME280;33676;51.006;17.180;2022-11-13T10:11:41;101645.20;;;9.21;97.46
47913;BME280;33676;51.006;17.180;2022-11-13T10:14:22;101642.70;;;9.22;97.49
47913;BME280;33676;51.006;17.180;2022-11-13T10:17:02;101644.14;;;9.21;97.33
47913;BME280;33676;51.006;17.180;2022-11-13T10:19:57;101637.96;;;9.19;97.41
47913;BME280;33676;51.006;17.180;2022-11-13T10:23:13;101639.15;;;9.17;97.31
47913;BME280;33676;51.006;17.180;2022-11-13T10:25:43;101636.83;;;9.14;97.38
47913;BME280;33676;51.006;17.180;2022-11-13T10:28:19;101633.90;;;9.10;97.11
47913;BME280;33676;51.006;17.180;2022-11-13T10:31:11;101636.09;;;9.05;97.23
47913;BME280;33676;51.006;17.180;2022-11-13T10:33:39;101636.67;;;9.04;97.52
47913;BME280;33676;51.006;17.180;2022-11-13T10:36:35;101632.35;;;9.03;97.68
47913;BME280;33676;51.006;17.180;2022-11-13T10:39:08;101631.79;;;9.04;97.75
47913;BME280;33676;51.006;17.180;2022-11-13T10:41:51;101625.65;;;9.08;97.96
47913;BME280;33676;51.006;17.180;2022-11-13T10:44:28;101620.54;;;9.09;97.78
47913;BME280;33676;51.006;17.180;2022-11-13T10:47:27;101622.46;;;9.09;97.73
47913;BME280;33676;51.006;17.180;2022-11-13T10:50:34;101620.77;;;9.08;97.84
47913;BME280;33676;51.006;17.180;2022-11-13T10:53:15;101619.33;;;9.12;98.02
47913;BME280;33676;51.006;17.180;2022-11-13T10:55:45;101614.30;;;9.15;98.07
47913;BME280;33676;51.006;17.180;2022-11-13T10:58:18;101607.92;;;9.17;97.92
47913;BME280;33676;51.006;17.180;2022-11-13T11:00:47;101605.51;;;9.20;97.98
47913;BME280;33676;51.006;17.180;2022-11-13T11:03:21;101608.00;;;9.22;98.04
47913;BME280;33676;51.006;17.180;2022-11-13T11:05:59;101610.10;;;9.25;98.10
47913;BME280;33676;51.006;17.180;2022-11-13T11:08:32;101604.90;;;9.28;98.05
47913;BME280;33676;51.006;17.180;2022-11-13T11:11:16;101603.20;;;9.27;97.77
47913;BME280;33676;51.006;17.180;2022-11-13T11:14:36;101601.38;;;9.25;97.52
47913;BME280;33676;51.006;17.180;2022-11-13T11:17:06;101598.12;;;9.24;97.74
47913;BME280;33676;51.006;17.180;2022-11-13T11:19:37;101596.01;;;9.25;97.69
47913;BME280;33676;51.006;17.180;2022-11-13T11:22:18;101592.79;;;9.23;97.42
47913;BME280;33676;51.006;17.180;2022-11-13T11:25:16;101589.91;;;9.17;97.31
47913;BME280;33676;51.006;17.180;2022-11-13T11:28:00;101591.48;;;9.14;97.32
47913;BME280;33676;51.006;17.180;2022-11-13T11:30:41;101588.91;;;9.13;97.51
47913;BME280;33676;51.006;17.180;2022-11-13T11:33:58;101585.21;;;9.14;97.77
47913;BME280;33676;51.006;17.180;2022-11-13T11:36:35;101584.50;;;9.14;97.72
47913;BME280;33676;51.006;17.180;2022-11-13T11:39:51;101587.39;;;9.12;97.74
47913;BME280;33676;51.006;17.180;2022-11-13T11:42:33;101580.09;;;9.12;98.15
47913;BME280;33676;51.006;17.180;2022-11-13T11:45:37;101575.63;;;9.14;98.27
47913;BME280;33676;51.006;17.180;2022-11-13T11:48:14;101575.56;;;9.18;98.49
47913;BME280;33676;51.006;17.180;2022-11-13T11:56:56;101555.50;;;9.18;98.17
47913;BME280;33676;51.006;17.180;2022-11-13T11:59:52;101552.41;;;9.17;98.18
47913;BME280;33676;51.006;17.180;2022-11-13T12:02:43;101550.30;;;9.18;98.37
47913;BME280;33676;51.006;17.180;2022-11-13T12:05:48;101548.02;;;9.18;98.33
47913;BME280;33676;51.006;17.180;2022-11-13T12:12:09;101539.91;;;9.19;98.68
47913;BME280;33676;51.006;17.180;2022-11-13T12:15:34;101534.34;;;9.22;98.76
47913;BME280;33676;51.006;17.180;2022-11-13T12:21:22;101532.48;;;9.32;99.16
47913;BME280;33676;51.006;17.180;2022-11-13T12:24:40;101528.69;;;9.34;98.80
47913;BME280;33676;51.006;17.180;2022-11-13T12:27:18;101523.66;;;9.34;98.70
47913;BME280;33676;51.006;17.180;2022-11-13T12:35:24;101509.34;;;9.40;98.78
47913;BME280;33676;51.006;17.180;2022-11-13T12:40:55;101502.33;;;9.44;98.56
47913;BME280;33676;51.006;17.180;2022-11-13T12:46:11;101509.00;;;9.53;98.45
47913;BME280;33676;51.006;17.180;2022-11-13T12:48:46;101498.61;;;9.54;98.48
47913;BME280;33676;51.006;17.180;2022-11-13T12:51:17;101496.38;;;9.57;98.26
47913;BME280;33676;51.006;17.180;2022-11-13T12:53:52;101489.09;;;9.56;97.93
47913;BME280;33676;51.006;17.180;2022-11-13T12:59:30;101484.20;;;9.62;98.16
47913;BME280;33676;51.006;17.180;2022-11-13T13:07:45;101467.46;;;9.65;97.99
47913;BME280;33676;51.006;17.180;2022-11-13T13:15:45;101456.98;;;9.81;98.30
47913;BME280;33676;51.006;17.180;2022-11-13T13:18:32;101454.89;;;9.90;98.26
47913;BME280;33676;51.006;17.180;2022-11-13T13:23:40;101450.05;;;9.89;97.66
47913;BME280;33676;51.006;17.180;2022-11-13T13:28:46;101446.48;;;9.90;97.58
47913;BME280;33676;51.006;17.180;2022-11-13T13:31:52;101441.20;;;9.91;97.35
47913;BME280;33676;51.006;17.180;2022-11-13T13:35:13;101437.86;;;9.91;97.38
47913;BME280;33676;51.006;17.180;2022-11-13T13:43:40;101423.27;;;10.02;97.85
47913;BME280;33676;51.006;17.180;2022-11-13T13:46:20;101417.74;;;10.10;97.94
47913;BME280;33676;51.006;17.180;2022-11-13T13:48:51;101412.67;;;10.13;97.57
47913;BME280;33676;51.006;17.180;2022-11-13T13:51:29;101412.79;;;10.17;97.45
47913;BME280;33676;51.006;17.180;2022-11-13T13:54:00;101418.51;;;10.22;97.12
47913;BME280;33676;51.006;17.180;2022-11-13T13:56:38;101417.37;;;10.23;97.16
47913;BME280;33676;51.006;17.180;2022-11-13T13:59:35;101420.95;;;10.28;97.26
47913;BME280;33676;51.006;17.180;2022-11-13T14:02:20;101425.42;;;10.32;97.23
47913;BME280;33676;51.006;17.180;2022-11-13T14:04:53;101422.01;;;10.31;97.07
47913;BME280;33676;51.006;17.180;2022-11-13T14:07:28;101421.48;;;10.27;96.94
47913;BME280;33676;51.006;17.180;2022-11-13T14:10:19;101417.69;;;10.24;96.92
47913;BME280;33676;51.006;17.180;2022-11-13T14:12:48;101420.00;;;10.20;97.11